Time,TemperatureF,DewpointF,PressureIn,WindDirection,WindDirectionDegrees,WindSpeedMPH,WindSpeedGustMPH,Humidity,HourlyPrecipIn,Conditions,Clouds,dailyrainin,SoftwareType,DateUTC
2013-07-31 00:00:00,63.5,62.9,30.05,NNE,22,0.0,-999.0,98,-99.99,,,0.00,Acu-Link.com,2013-07-31 04:00:00,
2013-07-31 00:15:00,62.8,62.2,30.04,NNE,22,0.0,-999.0,98,-99.99,,,0.00,Acu-Link.com,2013-07-31 04:15:00,
2013-07-31 00:30:00,62.2,61.6,30.05,NNE,22,0.0,-999.0,98,-99.99,,,0.00,Acu-Link.com,2013-07-31 04:30:00,
2013-07-31 00:45:00,62.1,61.5,30.04,NNE,22,0.0,-999.0,98,-99.99,,,0.00,Acu-Link.com,2013-07-31 04:45:00,
2013-07-31 01:01:00,61.5,60.9,30.05,NNE,22,0.0,-999.0,98,-99.99,,,0.00,Acu-Link.com,2013-07-31 05:01:00,
2013-07-31 01:16:00,61.3,60.7,30.04,NNE,22,0.0,-999.0,98,-99.99,,,0.00,Acu-Link.com,2013-07-31 05:16:00,
2013-07-31 01:31:00,61.0,60.4,30.05,NNE,22,0.0,-999.0,98,-99.99,,,0.00,Acu-Link.com,2013-07-31 05:31:00,
2013-07-31 01:47:00,60.8,60.2,30.04,NNE,22,0.0,-999.0,98,-99.99,,,0.00,Acu-Link.com,2013-07-31 05:47:00,
2013-07-31 02:02:00,60.6,60.0,30.04,North,0,0.0,-999.0,98,-99.99,,,0.00,Acu-Link.com,2013-07-31 06:02:00,
2013-07-31 02:17:00,60.4,59.8,30.04,NNE,22,0.0,-999.0,98,-99.99,,,0.00,Acu-Link.com,2013-07-31 06:17:00,
2013-07-31 02:33:00,60.1,59.5,30.05,North,0,0.0,-999.0,98,-99.99,,,0.00,Acu-Link.com,2013-07-31 06:33:00,
2013-07-31 02:48:00,59.9,59.3,30.04,NNE,22,0.0,-999.0,98,-99.99,,,0.00,Acu-Link.com,2013-07-31 06:48:00,
2013-07-31 03:03:00,59.9,59.3,30.04,NNE,22,0.0,-999.0,98,-99.99,,,0.00,Acu-Link.com,2013-07-31 07:03:00,
2013-07-31 03:19:00,59.7,59.1,30.03,NNE,22,0.0,-999.0,98,-99.99,,,0.00,Acu-Link.com,2013-07-31 07:19:00,
2013-07-31 03:34:00,59.4,58.8,30.03,NNE,22,0.0,-999.0,98,-99.99,,,0.00,Acu-Link.com,2013-07-31 07:34:00,
2013-07-31 03:49:00,59.0,58.4,30.04,NNE,22,0.0,-999.0,98,-99.99,,,0.00,Acu-Link.com,2013-07-31 07:49:00,
2013-07-31 04:04:00,59.0,58.4,30.04,NNE,22,0.0,-999.0,98,-99.99,,,0.00,Acu-Link.com,2013-07-31 08:04:00,
2013-07-31 04:19:00,58.8,58.2,30.04,NNE,22,0.0,-999.0,98,-99.99,,,0.00,Acu-Link.com,2013-07-31 08:19:00,
2013-07-31 04:35:00,58.3,57.7,30.02,NNE,22,0.0,-999.0,98,-99.99,,,0.00,Acu-Link.com,2013-07-31 08:35:00,
2013-07-31 04:50:00,58.1,57.5,30.03,NNE,22,0.0,-999.0,98,-99.99,,,0.00,Acu-Link.com,2013-07-31 08:50:00,
2013-07-31 05:05:00,57.7,57.1,30.03,NNE,22,0.0,-999.0,98,-99.99,,,0.00,Acu-Link.com,2013-07-31 09:05:00,
2013-07-31 05:20:00,57.6,57.0,30.04,NNE,22,0.0,-999.0,98,-99.99,,,0.00,Acu-Link.com,2013-07-31 09:20:00,
2013-07-31 05:36:00,57.4,56.8,30.03,NNE,22,0.0,-999.0,98,-99.99,,,0.00,Acu-Link.com,2013-07-31 09:36:00,
2013-07-31 05:51:00,57.2,56.6,30.04,NNE,22,0.0,-999.0,98,-99.99,,,0.00,Acu-Link.com,2013-07-31 09:51:00,
2013-07-31 06:06:00,57.0,56.4,30.04,NNE,22,0.0,-999.0,98,-99.99,,,0.00,Acu-Link.com,2013-07-31 10:06:00,
2013-07-31 06:37:00,57.0,56.4,30.03,NNE,22,0.0,-999.0,98,-99.99,,,0.00,Acu-Link.com,2013-07-31 10:37:00,
2013-07-31 06:52:00,57.4,56.8,30.04,NNE,22,0.0,-999.0,98,-99.99,,,0.00,Acu-Link.com,2013-07-31 10:52:00,
2013-07-31 07:08:00,57.9,57.3,30.03,North,0,0.0,-999.0,98,-99.99,,,0.00,Acu-Link.com,2013-07-31 11:08:00,
2013-07-31 07:23:00,58.6,58.0,30.04,NNE,22,0.0,-999.0,98,-99.99,,,0.00,Acu-Link.com,2013-07-31 11:23:00,
2013-07-31 07:38:00,59.7,59.1,30.04,NE,45,0.0,-999.0,98,-99.99,,,0.00,Acu-Link.com,2013-07-31 11:38:00,
2013-07-31 07:54:00,60.8,60.2,30.03,North,0,0.0,-999.0,98,-99.99,,,0.00,Acu-Link.com,2013-07-31 11:54:00,
2013-07-31 08:09:00,62.6,62.0,30.03,ENE,67,0.0,-999.0,98,-99.99,,,0.00,Acu-Link.com,2013-07-31 12:09:00,
2013-07-31 08:24:00,64.4,63.8,30.02,East,90,0.0,-999.0,98,-99.99,,,0.00,Acu-Link.com,2013-07-31 12:24:00,
2013-07-31 08:40:00,66.7,66.1,30.02,NE,45,2.2,-999.0,98,-99.99,,,0.00,Acu-Link.com,2013-07-31 12:40:00,
2013-07-31 08:55:00,68.4,67.8,30.03,NNW,337,0.0,-999.0,98,-99.99,,,0.00,Acu-Link.com,2013-07-31 12:55:00,
2013-07-31 09:10:00,72.3,68.2,30.04,WNW,292,0.0,-999.0,87,-99.99,,,0.00,Acu-Link.com,2013-07-31 13:10:00,
2013-07-31 09:25:00,75.0,67.7,30.03,North,0,0.0,-999.0,78,-99.99,,,0.00,Acu-Link.com,2013-07-31 13:25:00,
2013-07-31 09:40:00,72.7,66.2,30.03,NW,315,0.0,-999.0,80,-99.99,,,0.00,Acu-Link.com,2013-07-31 13:40:00,
2013-07-31 09:56:00,72.9,66.7,30.02,ENE,67,1.1,-999.0,81,-99.99,,,0.00,Acu-Link.com,2013-07-31 13:56:00,
2013-07-31 10:11:00,73.0,67.2,30.04,NW,315,0.0,-999.0,82,-99.99,,,0.00,Acu-Link.com,2013-07-31 14:11:00,
2013-07-31 10:27:00,74.3,66.6,30.03,NNE,22,1.1,-999.0,77,-99.99,,,0.00,Acu-Link.com,2013-07-31 14:27:00,
2013-07-31 10:42:00,75.7,67.6,30.02,WNW,292,0.0,-999.0,76,-99.99,,,0.00,Acu-Link.com,2013-07-31 14:42:00,
2013-07-31 10:57:00,75.4,67.7,30.01,West,270,0.0,-999.0,77,-99.99,,,0.00,Acu-Link.com,2013-07-31 14:57:00,
2013-07-31 11:13:00,75.6,65.9,30.02,ESE,112,0.0,-999.0,72,-99.99,,,0.00,Acu-Link.com,2013-07-31 15:13:00,
2013-07-31 11:28:00,76.5,65.6,30.00,West,270,0.0,-999.0,69,-99.99,,,0.00,Acu-Link.com,2013-07-31 15:28:00,
2013-07-31 11:43:00,78.6,64.5,30.00,ESE,112,1.7,-999.0,62,-99.99,,,0.00,Acu-Link.com,2013-07-31 15:43:00,
2013-07-31 11:58:00,78.6,65.4,30.00,NNE,22,2.2,-999.0,64,-99.99,,,0.00,Acu-Link.com,2013-07-31 15:58:00,
2013-07-31 12:14:00,79.0,65.3,30.00,ESE,112,2.7,-999.0,63,-99.99,,,0.00,Acu-Link.com,2013-07-31 16:14:00,
2013-07-31 12:29:00,78.4,66.5,29.98,West,270,2.2,-999.0,67,-99.99,,,0.00,Acu-Link.com,2013-07-31 16:29:00,
2013-07-31 12:45:00,77.7,65.4,29.99,East,90,0.0,-999.0,66,-99.99,,,0.00,Acu-Link.com,2013-07-31 16:45:00,
2013-07-31 13:00:00,77.7,63.6,29.98,ESE,112,0.0,-999.0,62,-99.99,,,0.00,Acu-Link.com,2013-07-31 17:00:00,
2013-07-31 13:15:00,77.0,61.1,29.97,East,90,0.0,-999.0,58,-99.99,,,0.00,Acu-Link.com,2013-07-31 17:15:00,
2013-07-31 13:30:00,78.3,60.8,29.97,East,90,3.2,-999.0,55,-99.99,,,0.00,Acu-Link.com,2013-07-31 17:30:00,
2013-07-31 13:46:00,79.3,61.7,29.95,SE,135,2.7,-999.0,55,-99.99,,,0.00,Acu-Link.com,2013-07-31 17:46:00,
2013-07-31 14:01:00,78.6,61.1,29.96,ESE,112,2.2,-999.0,55,-99.99,,,0.00,Acu-Link.com,2013-07-31 18:01:00,
2013-07-31 14:16:00,78.3,60.8,29.94,East,90,0.0,-999.0,55,-99.99,,,0.00,Acu-Link.com,2013-07-31 18:16:00,
2013-07-31 14:32:00,79.9,64.3,29.94,West,270,1.1,-999.0,59,-99.99,,,0.00,Acu-Link.com,2013-07-31 18:32:00,
2013-07-31 14:47:00,78.1,63.1,29.93,SE,135,0.0,-999.0,60,-99.99,,,0.00,Acu-Link.com,2013-07-31 18:47:00,
2013-07-31 15:02:00,77.0,63.0,29.94,WNW,292,0.0,-999.0,62,-99.99,,,0.00,Acu-Link.com,2013-07-31 19:02:00,
2013-07-31 15:17:00,77.0,62.5,29.93,WNW,292,0.0,-999.0,61,-99.99,,,0.00,Acu-Link.com,2013-07-31 19:17:00,
2013-07-31 15:32:00,76.8,62.8,29.92,NNW,337,0.0,-999.0,62,-99.99,,,0.00,Acu-Link.com,2013-07-31 19:32:00,
2013-07-31 15:48:00,77.0,64.3,29.92,NNE,22,0.0,-999.0,65,-99.99,,,0.00,Acu-Link.com,2013-07-31 19:48:00,
2013-07-31 16:03:00,77.5,61.5,29.91,WNW,292,0.0,-999.0,58,-99.99,,,0.00,Acu-Link.com,2013-07-31 20:03:00,
2013-07-31 16:18:00,79.3,63.2,29.91,WNW,292,0.0,-999.0,58,-99.99,,,0.00,Acu-Link.com,2013-07-31 20:18:00,
2013-07-31 16:34:00,77.4,62.9,29.91,West,270,0.0,-999.0,61,-99.99,,,0.00,Acu-Link.com,2013-07-31 20:34:00,
2013-07-31 16:49:00,77.0,61.6,29.91,WNW,292,0.0,-999.0,59,-99.99,,,0.00,Acu-Link.com,2013-07-31 20:49:00,
2013-07-31 17:04:00,77.9,63.3,29.90,WNW,292,0.0,-999.0,61,-99.99,,,0.00,Acu-Link.com,2013-07-31 21:04:00,
2013-07-31 17:19:00,77.0,62.0,29.89,WNW,292,0.0,-999.0,60,-99.99,,,0.00,Acu-Link.com,2013-07-31 21:19:00,
2013-07-31 17:35:00,77.0,62.5,29.88,West,270,0.0,-999.0,61,-99.99,,,0.00,Acu-Link.com,2013-07-31 21:35:00,
2013-07-31 17:50:00,78.4,62.4,29.89,East,90,0.0,-999.0,58,-99.99,,,0.00,Acu-Link.com,2013-07-31 21:50:00,
2013-07-31 18:05:00,79.3,61.7,29.88,East,90,0.0,-999.0,55,-99.99,,,0.00,Acu-Link.com,2013-07-31 22:05:00,
2013-07-31 18:20:00,76.6,60.2,29.88,East,90,0.0,-999.0,57,-99.99,,,0.00,Acu-Link.com,2013-07-31 22:20:00,
2013-07-31 18:35:00,76.1,60.2,29.87,East,90,0.0,-999.0,58,-99.99,,,0.00,Acu-Link.com,2013-07-31 22:35:00,
2013-07-31 18:51:00,75.0,60.6,29.86,East,90,0.0,-999.0,61,-99.99,,,0.00,Acu-Link.com,2013-07-31 22:51:00,
2013-07-31 19:06:00,74.3,60.9,29.86,East,90,0.0,-999.0,63,-99.99,,,0.00,Acu-Link.com,2013-07-31 23:06:00,
2013-07-31 19:21:00,73.2,62.4,29.86,East,90,0.0,-999.0,69,-99.99,,,0.00,Acu-Link.com,2013-07-31 23:21:00,
2013-07-31 19:37:00,73.0,63.4,29.85,East,90,0.0,-999.0,72,-99.99,,,0.00,Acu-Link.com,2013-07-31 23:37:00,
2013-07-31 19:52:00,72.7,67.6,29.86,NNW,337,0.0,-999.0,84,-99.99,,,0.00,Acu-Link.com,2013-07-31 23:52:00,
2013-07-31 20:07:00,72.5,68.4,29.85,NW,315,0.0,-999.0,87,-99.99,,,0.00,Acu-Link.com,2013-08-01 00:07:00,
2013-07-31 20:23:00,71.2,68.1,29.86,NNW,337,0.0,-999.0,90,-99.99,,,0.00,Acu-Link.com,2013-08-01 00:23:00,
2013-07-31 20:38:00,70.0,67.9,29.85,NNW,337,0.0,-999.0,93,-99.99,,,0.00,Acu-Link.com,2013-08-01 00:38:00,
2013-07-31 20:53:00,68.9,67.1,29.85,NNW,337,0.0,-999.0,94,-99.99,,,0.00,Acu-Link.com,2013-08-01 00:53:00,
2013-07-31 21:08:00,68.0,67.4,29.85,NNW,337,0.0,-999.0,98,-99.99,,,0.00,Acu-Link.com,2013-08-01 01:08:00,
2013-07-31 21:24:00,67.8,67.2,29.85,NNW,337,0.0,-999.0,98,-99.99,,,0.00,Acu-Link.com,2013-08-01 01:24:00,
2013-07-31 21:39:00,67.6,67.0,29.84,NNW,337,0.0,-999.0,98,-99.99,,,0.00,Acu-Link.com,2013-08-01 01:39:00,
2013-07-31 21:54:00,67.5,66.9,29.84,NNW,337,0.0,-999.0,98,-99.99,,,0.00,Acu-Link.com,2013-08-01 01:54:00,
2013-07-31 22:10:00,67.6,67.0,29.84,NNW,337,0.0,-999.0,98,-99.99,,,0.00,Acu-Link.com,2013-08-01 02:10:00,
2013-07-31 22:25:00,67.6,67.0,29.84,NNW,337,0.0,-999.0,98,-99.99,,,0.00,Acu-Link.com,2013-08-01 02:25:00,
2013-07-31 22:40:00,67.6,67.0,29.83,NNW,337,0.0,-999.0,98,-99.99,,,0.00,Acu-Link.com,2013-08-01 02:40:00,
2013-07-31 22:55:00,67.8,67.2,29.82,NNW,337,0.0,-999.0,98,-99.99,,,0.00,Acu-Link.com,2013-08-01 02:55:00,
2013-07-31 23:10:00,68.2,67.6,29.81,West,270,0.0,-999.0,98,-99.99,,,0.00,Acu-Link.com,2013-08-01 03:10:00,
2013-07-31 23:26:00,68.2,67.6,29.82,SW,225,0.0,-999.0,98,-99.99,,,0.00,Acu-Link.com,2013-08-01 03:26:00,
2013-07-31 23:41:00,68.5,67.9,29.81,SW,225,0.0,-999.0,98,-99.99,,,0.00,Acu-Link.com,2013-08-01 03:41:00,
2013-07-31 23:56:00,68.5,67.9,29.81,West,270,0.0,-999.0,98,-99.99,,,0.00,Acu-Link.com,2013-08-01 03:56:00,